sensor_id;sensor_type;location;lat;lon;timestamp;temperature;humidity
913;DHT22;443;51.448;7.028;2023-03-01T00:00:50;9.70;59.90
913;DHT22;443;51.448;7.028;2023-03-01T00:03:17;9.70;59.40
913;DHT22;443;51.448;7.028;2023-03-01T00:05:44;9.70;60.00
913;DHT22;443;51.448;7.028;2023-03-01T00:08:12;9.70;59.70
913;DHT22;443;51.448;7.028;2023-03-01T00:10:39;9.70;59.90
913;DHT22;443;51.448;7.028;2023-03-01T00:13:06;9.60;59.20
913;DHT22;443;51.448;7.028;2023-03-01T00:15:33;9.60;59.40
913;DHT22;443;51.448;7.028;2023-03-01T00:18:00;9.60;59.60
913;DHT22;443;51.448;7.028;2023-03-01T00:20:27;9.50;59.30
913;DHT22;443;51.448;7.028;2023-03-01T00:22:54;9.50;59.50
913;DHT22;443;51.448;7.028;2023-03-01T00:25:22;9.50;59.70
913;DHT22;443;51.448;7.028;2023-03-01T00:27:48;9.50;59.20
913;DHT22;443;51.448;7.028;2023-03-01T00:30:16;9.50;60.00
913;DHT22;443;51.448;7.028;2023-03-01T00:32:42;9.50;59.30
913;DHT22;443;51.448;7.028;2023-03-01T00:35:09;9.50;59.40
913;DHT22;443;51.448;7.028;2023-03-01T00:37:36;9.50;59.90
913;DHT22;443;51.448;7.028;2023-03-01T00:40:04;9.50;59.70
913;DHT22;443;51.448;7.028;2023-03-01T00:42:33;9.50;59.80
913;DHT22;443;51.448;7.028;2023-03-01T00:44:59;9.40;59.30
913;DHT22;443;51.448;7.028;2023-03-01T00:47:28;9.40;59.80
913;DHT22;443;51.448;7.028;2023-03-01T00:49:55;9.40;59.50
913;DHT22;443;51.448;7.028;2023-03-01T00:52:22;9.40;59.60
913;DHT22;443;51.448;7.028;2023-03-01T00:54:52;9.40;59.80
913;DHT22;443;51.448;7.028;2023-03-01T00:57:18;9.40;59.60
913;DHT22;443;51.448;7.028;2023-03-01T00:59:46;9.40;59.50
913;DHT22;443;51.448;7.028;2023-03-01T01:02:13;9.40;59.40
913;DHT22;443;51.448;7.028;2023-03-01T01:04:40;9.30;59.70
913;DHT22;443;51.448;7.028;2023-03-01T01:07:07;9.30;59.40
913;DHT22;443;51.448;7.028;2023-03-01T01:09:34;9.30;59.90
913;DHT22;443;51.448;7.028;2023-03-01T01:12:01;9.30;59.40
913;DHT22;443;51.448;7.028;2023-03-01T01:14:27;9.40;60.00
913;DHT22;443;51.448;7.028;2023-03-01T01:16:56;9.30;59.50
913;DHT22;443;51.448;7.028;2023-03-01T01:19:23;9.30;59.70
913;DHT22;443;51.448;7.028;2023-03-01T01:21:50;9.20;59.40
913;DHT22;443;51.448;7.028;2023-03-01T01:24:17;9.20;59.60
913;DHT22;443;51.448;7.028;2023-03-01T01:26:44;9.30;59.80
913;DHT22;443;51.448;7.028;2023-03-01T01:29:11;9.30;59.30
913;DHT22;443;51.448;7.028;2023-03-01T01:31:41;9.20;60.00
913;DHT22;443;51.448;7.028;2023-03-01T01:34:14;9.20;59.70
913;DHT22;443;51.448;7.028;2023-03-01T01:36:41;9.20;59.90
913;DHT22;443;51.448;7.028;2023-03-01T01:39:07;9.10;59.40
913;DHT22;443;51.448;7.028;2023-03-01T01:41:39;9.10;59.90
913;DHT22;443;51.448;7.028;2023-03-01T01:44:15;9.00;59.50
913;DHT22;443;51.448;7.028;2023-03-01T01:46:45;9.10;59.80
913;DHT22;443;51.448;7.028;2023-03-01T01:49:23;9.10;59.80
913;DHT22;443;51.448;7.028;2023-03-01T01:51:55;9.10;59.50
913;DHT22;443;51.448;7.028;2023-03-01T01:54:26;9.00;59.50
913;DHT22;443;51.448;7.028;2023-03-01T01:56:57;9.00;59.60
913;DHT22;443;51.448;7.028;2023-03-01T01:59:25;8.90;60.00
913;DHT22;443;51.448;7.028;2023-03-01T02:01:55;8.90;60.10
913;DHT22;443;51.448;7.028;2023-03-01T02:04:25;8.90;60.10
913;DHT22;443;51.448;7.028;2023-03-01T02:06:55;8.90;59.90
913;DHT22;443;51.448;7.028;2023-03-01T02:09:24;9.00;60.40
913;DHT22;443;51.448;7.028;2023-03-01T02:11:52;8.90;59.50
913;DHT22;443;51.448;7.028;2023-03-01T02:14:19;8.90;60.50
913;DHT22;443;51.448;7.028;2023-03-01T02:16:46;8.90;59.90
913;DHT22;443;51.448;7.028;2023-03-01T02:19:26;9.00;60.40
913;DHT22;443;51.448;7.028;2023-03-01T02:22:08;9.00;60.40
913;DHT22;443;51.448;7.028;2023-03-01T02:24:45;9.00;60.20
913;DHT22;443;51.448;7.028;2023-03-01T02:27:17;9.00;60.00
913;DHT22;443;51.448;7.028;2023-03-01T02:29:51;8.90;59.90
913;DHT22;443;51.448;7.028;2023-03-01T02:32:21;9.00;60.20
913;DHT22;443;51.448;7.028;2023-03-01T02:34:51;8.90;59.50
913;DHT22;443;51.448;7.028;2023-03-01T02:37:19;8.80;60.00
913;DHT22;443;51.448;7.028;2023-03-01T02:39:53;8.80;59.90
913;DHT22;443;51.448;7.028;2023-03-01T02:42:26;8.80;59.40
913;DHT22;443;51.448;7.028;2023-03-01T02:44:57;8.80;59.70
913;DHT22;443;51.448;7.028;2023-03-01T02:47:24;8.70;59.60
913;DHT22;443;51.448;7.028;2023-03-01T02:49:51;8.70;60.30
913;DHT22;443;51.448;7.028;2023-03-01T02:52:37;8.80;60.40
913;DHT22;443;51.448;7.028;2023-03-01T02:55:11;8.90;60.10
913;DHT22;443;51.448;7.028;2023-03-01T02:57:41;8.80;59.30
913;DHT22;443;51.448;7.028;2023-03-01T03:00:12;8.70;59.50
913;DHT22;443;51.448;7.028;2023-03-01T03:02:45;8.70;60.00
913;DHT22;443;51.448;7.028;2023-03-01T03:05:14;8.60;60.30
913;DHT22;443;51.448;7.028;2023-03-01T03:07:43;8.70;60.40
913;DHT22;443;51.448;7.028;2023-03-01T03:10:13;8.70;60.10
913;DHT22;443;51.448;7.028;2023-03-01T03:12:41;8.80;59.90
913;DHT22;443;51.448;7.028;2023-03-01T03:15:10;8.80;60.00
913;DHT22;443;51.448;7.028;2023-03-01T03:17:39;8.80;60.10
913;DHT22;443;51.448;7.028;2023-03-01T03:20:08;8.70;59.60
913;DHT22;443;51.448;7.028;2023-03-01T03:22:37;8.60;60.20
913;DHT22;443;51.448;7.028;2023-03-01T03:25:05;8.70;60.00
913;DHT22;443;51.448;7.028;2023-03-01T03:27:35;8.60;60.20
913;DHT22;443;51.448;7.028;2023-03-01T03:30:04;8.60;60.00
913;DHT22;443;51.448;7.028;2023-03-01T03:32:35;8.60;59.90
913;DHT22;443;51.448;7.028;2023-03-01T03:35:03;8.60;59.80
913;DHT22;443;51.448;7.028;2023-03-01T03:37:35;8.60;60.40
913;DHT22;443;51.448;7.028;2023-03-01T03:40:20;8.50;59.60
913;DHT22;443;51.448;7.028;2023-03-01T03:42:47;8.50;60.60
913;DHT22;443;51.448;7.028;2023-03-01T03:45:14;8.60;60.10
913;DHT22;443;51.448;7.028;2023-03-01T03:47:43;8.60;59.90
913;DHT22;443;51.448;7.028;2023-03-01T03:50:11;8.60;60.10
913;DHT22;443;51.448;7.028;2023-03-01T03:52:38;8.60;59.90
913;DHT22;443;51.448;7.028;2023-03-01T03:55:06;8.60;59.90
913;DHT22;443;51.448;7.028;2023-03-01T03:57:36;8.60;60.20
913;DHT22;443;51.448;7.028;2023-03-01T04:00:04;8.60;59.70
913;DHT22;443;51.448;7.028;2023-03-01T04:02:38;8.60;60.40
913;DHT22;443;51.448;7.028;2023-03-01T04:05:12;8.50;59.60
913;DHT22;443;51.448;7.028;2023-03-01T04:07:42;8.60;60.20
913;DHT22;443;51.448;7.028;2023-03-01T04:10:11;8.50;60.00
913;DHT22;443;51.448;7.028;2023-03-01T04:12:38;8.50;59.60
913;DHT22;443;51.448;7.028;2023-03-01T04:15:07;8.50;59.80
913;DHT22;443;51.448;7.028;2023-03-01T04:17:39;8.50;60.10
913;DHT22;443;51.448;7.028;2023-03-01T04:20:09;8.50;59.80
913;DHT22;443;51.448;7.028;2023-03-01T04:22:37;8.50;59.80
913;DHT22;443;51.448;7.028;2023-03-01T04:25:04;8.50;59.80
913;DHT22;443;51.448;7.028;2023-03-01T04:27:32;8.40;59.70
913;DHT22;443;51.448;7.028;2023-03-01T04:29:59;8.40;59.90
913;DHT22;443;51.448;7.028;2023-03-01T04:32:25;8.50;60.10
913;DHT22;443;51.448;7.028;2023-03-01T04:34:53;8.40;59.90
913;DHT22;443;51.448;7.028;2023-03-01T04:37:22;8.40;59.80
913;DHT22;443;51.448;7.028;2023-03-01T04:39:49;8.40;59.90
913;DHT22;443;51.448;7.028;2023-03-01T04:42:16;8.30;60.00
913;DHT22;443;51.448;7.028;2023-03-01T04:44:43;8.40;59.80
913;DHT22;443;51.448;7.028;2023-03-01T04:47:10;8.40;60.30
913;DHT22;443;51.448;7.028;2023-03-01T04:49:37;8.40;59.90
913;DHT22;443;51.448;7.028;2023-03-01T04:52:04;8.40;59.90
913;DHT22;443;51.448;7.028;2023-03-01T04:54:33;8.30;60.10
913;DHT22;443;51.448;7.028;2023-03-01T04:57:01;8.30;60.00
913;DHT22;443;51.448;7.028;2023-03-01T04:59:28;8.30;59.80
913;DHT22;443;51.448;7.028;2023-03-01T05:01:56;8.40;59.90
913;DHT22;443;51.448;7.028;2023-03-01T05:04:23;8.30;59.80
913;DHT22;443;51.448;7.028;2023-03-01T05:06:50;8.30;60.40
913;DHT22;443;51.448;7.028;2023-03-01T05:09:19;8.30;60.40
913;DHT22;443;51.448;7.028;2023-03-01T05:11:47;8.20;59.80
913;DHT22;443;51.448;7.028;2023-03-01T05:14:14;8.40;61.00
913;DHT22;443;51.448;7.028;2023-03-01T05:16:41;8.50;60.90
913;DHT22;443;51.448;7.028;2023-03-01T05:19:07;8.50;61.40
913;DHT22;443;51.448;7.028;2023-03-01T05:21:41;8.50;60.40
913;DHT22;443;51.448;7.028;2023-03-01T05:24:21;8.40;60.50
913;DHT22;443;51.448;7.028;2023-03-01T05:26:49;8.50;60.80
913;DHT22;443;51.448;7.028;2023-03-01T05:29:17;8.50;60.90
913;DHT22;443;51.448;7.028;2023-03-01T05:31:51;8.50;60.40
913;DHT22;443;51.448;7.028;2023-03-01T05:34:18;8.50;60.40
913;DHT22;443;51.448;7.028;2023-03-01T05:36:48;8.50;60.50
913;DHT22;443;51.448;7.028;2023-03-01T05:39:19;8.50;60.70
913;DHT22;443;51.448;7.028;2023-03-01T05:41:46;8.50;60.60
913;DHT22;443;51.448;7.028;2023-03-01T05:44:14;8.60;60.60
913;DHT22;443;51.448;7.028;2023-03-01T05:46:41;8.60;61.40
913;DHT22;443;51.448;7.028;2023-03-01T05:49:08;8.60;60.20
913;DHT22;443;51.448;7.028;2023-03-01T05:51:35;8.60;60.40
913;DHT22;443;51.448;7.028;2023-03-01T05:54:02;8.60;60.30
913;DHT22;443;51.448;7.028;2023-03-01T05:56:32;8.60;60.30
913;DHT22;443;51.448;7.028;2023-03-01T05:58:59;8.70;60.10
913;DHT22;443;51.448;7.028;2023-03-01T06:01:27;8.70;60.40
913;DHT22;443;51.448;7.028;2023-03-01T06:03:55;8.70;60.20
913;DHT22;443;51.448;7.028;2023-03-01T06:06:22;8.70;60.00
913;DHT22;443;51.448;7.028;2023-03-01T06:08:49;8.80;60.10
913;DHT22;443;51.448;7.028;2023-03-01T06:11:16;8.80;60.00
913;DHT22;443;51.448;7.028;2023-03-01T06:13:43;8.80;59.90
913;DHT22;443;51.448;7.028;2023-03-01T06:16:10;8.80;59.90
913;DHT22;443;51.448;7.028;2023-03-01T06:18:38;8.80;59.90
913;DHT22;443;51.448;7.028;2023-03-01T06:21:06;8.80;60.10
913;DHT22;443;51.448;7.028;2023-03-01T06:23:33;8.80;59.90
913;DHT22;443;51.448;7.028;2023-03-01T06:26:00;8.70;60.30
913;DHT22;443;51.448;7.028;2023-03-01T06:28:27;8.70;60.00
913;DHT22;443;51.448;7.028;2023-03-01T06:30:54;8.70;60.20
913;DHT22;443;51.448;7.028;2023-03-01T06:33:20;8.80;61.50
913;DHT22;443;51.448;7.028;2023-03-01T06:35:51;8.80;60.00
913;DHT22;443;51.448;7.028;2023-03-01T06:38:18;8.70;59.90
913;DHT22;443;51.448;7.028;2023-03-01T06:40:45;8.70;59.80
913;DHT22;443;51.448;7.028;2023-03-01T06:43:17;8.70;60.20
913;DHT22;443;51.448;7.028;2023-03-01T06:45:44;8.70;59.60
913;DHT22;443;51.448;7.028;2023-03-01T06:48:11;8.60;60.10
913;DHT22;443;51.448;7.028;2023-03-01T06:50:38;8.70;60.10
913;DHT22;443;51.448;7.028;2023-03-01T06:53:06;8.70;59.80
913;DHT22;443;51.448;7.028;2023-03-01T06:55:33;8.80;60.10
913;DHT22;443;51.448;7.028;2023-03-01T06:58:01;8.80;59.60
913;DHT22;443;51.448;7.028;2023-03-01T07:00:28;8.80;59.50
913;DHT22;443;51.448;7.028;2023-03-01T07:02:58;8.70;59.40
913;DHT22;443;51.448;7.028;2023-03-01T07:05:25;8.80;59.90
913;DHT22;443;51.448;7.028;2023-03-01T07:07:53;8.70;59.80
913;DHT22;443;51.448;7.028;2023-03-01T07:10:22;8.80;59.70
913;DHT22;443;51.448;7.028;2023-03-01T07:12:48;8.80;60.10
913;DHT22;443;51.448;7.028;2023-03-01T07:15:15;8.80;60.00
913;DHT22;443;51.448;7.028;2023-03-01T07:17:42;8.80;59.90
913;DHT22;443;51.448;7.028;2023-03-01T07:20:11;8.90;59.70
913;DHT22;443;51.448;7.028;2023-03-01T07:22:40;8.90;59.90
913;DHT22;443;51.448;7.028;2023-03-01T07:25:08;8.90;59.80
913;DHT22;443;51.448;7.028;2023-03-01T07:27:36;8.90;59.90
913;DHT22;443;51.448;7.028;2023-03-01T07:30:04;8.90;59.30
913;DHT22;443;51.448;7.028;2023-03-01T07:32:31;9.00;59.80
913;DHT22;443;51.448;7.028;2023-03-01T07:34:58;9.00;59.50
913;DHT22;443;51.448;7.028;2023-03-01T07:37:25;9.10;59.70
913;DHT22;443;51.448;7.028;2023-03-01T07:39:51;9.10;59.50
913;DHT22;443;51.448;7.028;2023-03-01T07:42:18;9.10;59.60
913;DHT22;443;51.448;7.028;2023-03-01T07:44:46;9.20;59.70
913;DHT22;443;51.448;7.028;2023-03-01T07:47:13;9.10;59.20
913;DHT22;443;51.448;7.028;2023-03-01T07:49:40;9.10;59.30
913;DHT22;443;51.448;7.028;2023-03-01T07:52:09;9.30;60.90
913;DHT22;443;51.448;7.028;2023-03-01T07:54:36;9.30;59.00
913;DHT22;443;51.448;7.028;2023-03-01T07:57:02;9.20;59.10
913;DHT22;443;51.448;7.028;2023-03-01T07:59:29;9.40;59.30
913;DHT22;443;51.448;7.028;2023-03-01T08:01:58;9.30;59.20
913;DHT22;443;51.448;7.028;2023-03-01T08:04:25;9.50;59.00
913;DHT22;443;51.448;7.028;2023-03-01T08:06:52;9.40;58.80
913;DHT22;443;51.448;7.028;2023-03-01T08:09:21;9.50;59.10
913;DHT22;443;51.448;7.028;2023-03-01T08:11:48;9.50;58.60
913;DHT22;443;51.448;7.028;2023-03-01T08:14:15;9.60;58.90
913;DHT22;443;51.448;7.028;2023-03-01T08:16:42;9.50;58.90
913;DHT22;443;51.448;7.028;2023-03-01T08:19:11;9.60;59.30
913;DHT22;443;51.448;7.028;2023-03-01T08:21:38;9.60;58.60
913;DHT22;443;51.448;7.028;2023-03-01T08:24:06;9.50;58.30
913;DHT22;443;51.448;7.028;2023-03-01T08:26:33;9.70;58.90
913;DHT22;443;51.448;7.028;2023-03-01T08:29:01;9.80;58.50
913;DHT22;443;51.448;7.028;2023-03-01T08:31:30;9.80;58.80
913;DHT22;443;51.448;7.028;2023-03-01T08:33:59;9.80;58.50
913;DHT22;443;51.448;7.028;2023-03-01T08:36:30;9.80;58.40
913;DHT22;443;51.448;7.028;2023-03-01T08:38:57;10.00;58.10
913;DHT22;443;51.448;7.028;2023-03-01T08:41:24;10.20;58.50
913;DHT22;443;51.448;7.028;2023-03-01T08:43:51;10.10;57.90
913;DHT22;443;51.448;7.028;2023-03-01T08:46:18;10.30;58.90
913;DHT22;443;51.448;7.028;2023-03-01T08:48:45;10.30;58.00
913;DHT22;443;51.448;7.028;2023-03-01T08:51:13;10.50;59.00
913;DHT22;443;51.448;7.028;2023-03-01T08:53:42;10.30;56.80
913;DHT22;443;51.448;7.028;2023-03-01T08:56:10;10.40;58.30
913;DHT22;443;51.448;7.028;2023-03-01T08:58:37;10.60;58.80
913;DHT22;443;51.448;7.028;2023-03-01T09:01:07;10.40;56.90
913;DHT22;443;51.448;7.028;2023-03-01T09:03:34;10.60;60.40
913;DHT22;443;51.448;7.028;2023-03-01T09:06:01;10.40;56.30
913;DHT22;443;51.448;7.028;2023-03-01T09:08:29;10.40;57.40
913;DHT22;443;51.448;7.028;2023-03-01T09:10:57;10.40;56.90
913;DHT22;443;51.448;7.028;2023-03-01T09:13:23;10.30;56.80
913;DHT22;443;51.448;7.028;2023-03-01T09:15:51;10.40;57.00
913;DHT22;443;51.448;7.028;2023-03-01T09:18:17;10.30;57.50
913;DHT22;443;51.448;7.028;2023-03-01T09:20:44;10.70;58.50
913;DHT22;443;51.448;7.028;2023-03-01T09:23:11;10.70;58.70
913;DHT22;443;51.448;7.028;2023-03-01T09:25:38;10.90;57.90
913;DHT22;443;51.448;7.028;2023-03-01T09:28:06;11.00;58.10
913;DHT22;443;51.448;7.028;2023-03-01T09:30:33;10.60;55.30
913;DHT22;443;51.448;7.028;2023-03-01T09:33:00;11.30;61.00
913;DHT22;443;51.448;7.028;2023-03-01T09:35:26;11.70;60.00
913;DHT22;443;51.448;7.028;2023-03-01T09:37:53;11.40;56.50
913;DHT22;443;51.448;7.028;2023-03-01T09:40:23;11.50;57.80
913;DHT22;443;51.448;7.028;2023-03-01T09:42:54;11.40;56.70
913;DHT22;443;51.448;7.028;2023-03-01T09:45:29;11.40;57.10
913;DHT22;443;51.448;7.028;2023-03-01T09:48:00;11.60;58.50
913;DHT22;443;51.448;7.028;2023-03-01T09:50:33;11.40;58.30
913;DHT22;443;51.448;7.028;2023-03-01T09:53:02;11.50;56.50
913;DHT22;443;51.448;7.028;2023-03-01T09:55:33;11.20;56.00
913;DHT22;443;51.448;7.028;2023-03-01T09:58:35;11.20;57.60
913;DHT22;443;51.448;7.028;2023-03-01T10:01:17;11.20;58.70
913;DHT22;443;51.448;7.028;2023-03-01T10:04:00;11.30;55.60
913;DHT22;443;51.448;7.028;2023-03-01T10:06:28;11.30;57.50
913;DHT22;443;51.448;7.028;2023-03-01T10:08:57;11.50;59.50
913;DHT22;443;51.448;7.028;2023-03-01T10:11:28;11.70;60.00
913;DHT22;443;51.448;7.028;2023-03-01T10:13:59;12.00;60.60
913;DHT22;443;51.448;7.028;2023-03-01T10:16:37;11.90;58.30
913;DHT22;443;51.448;7.028;2023-03-01T10:19:06;12.10;59.40
913;DHT22;443;51.448;7.028;2023-03-01T10:21:43;12.20;59.60
913;DHT22;443;51.448;7.028;2023-03-01T10:24:13;12.00;55.50
913;DHT22;443;51.448;7.028;2023-03-01T10:26:47;11.90;57.40
913;DHT22;443;51.448;7.028;2023-03-01T10:29:15;11.80;57.70
913;DHT22;443;51.448;7.028;2023-03-01T10:31:45;11.60;56.70
913;DHT22;443;51.448;7.028;2023-03-01T10:34:14;11.60;57.90
913;DHT22;443;51.448;7.028;2023-03-01T10:36:43;11.60;57.60
913;DHT22;443;51.448;7.028;2023-03-01T10:39:16;11.80;57.40
913;DHT22;443;51.448;7.028;2023-03-01T10:41:58;11.90;58.30
913;DHT22;443;51.448;7.028;2023-03-01T10:44:41;12.10;57.70
913;DHT22;443;51.448;7.028;2023-03-01T10:47:16;11.90;58.00
913;DHT22;443;51.448;7.028;2023-03-01T10:49:57;11.80;56.80
913;DHT22;443;51.448;7.028;2023-03-01T10:52:27;12.10;59.60
913;DHT22;443;51.448;7.028;2023-03-01T10:54:56;12.00;56.90
913;DHT22;443;51.448;7.028;2023-03-01T10:57:35;12.00;58.80
913;DHT22;443;51.448;7.028;2023-03-01T11:00:22;11.90;57.10
913;DHT22;443;51.448;7.028;2023-03-01T11:03:03;12.20;59.50
913;DHT22;443;51.448;7.028;2023-03-01T11:05:30;12.20;58.20
913;DHT22;443;51.448;7.028;2023-03-01T11:08:00;12.10;58.30
913;DHT22;443;51.448;7.028;2023-03-01T11:10:30;12.00;56.10
913;DHT22;443;51.448;7.028;2023-03-01T11:13:08;12.00;57.90
913;DHT22;443;51.448;7.028;2023-03-01T11:15:39;11.90;58.00
913;DHT22;443;51.448;7.028;2023-03-01T11:18:18;11.80;57.30
913;DHT22;443;51.448;7.028;2023-03-01T11:20:46;12.10;59.50
913;DHT22;443;51.448;7.028;2023-03-01T11:23:14;12.00;57.40
913;DHT22;443;51.448;7.028;2023-03-01T11:25:44;12.00;55.30
913;DHT22;443;51.448;7.028;2023-03-01T11:28:16;12.20;56.70
913;DHT22;443;51.448;7.028;2023-03-01T11:30:49;12.00;57.70
913;DHT22;443;51.448;7.028;2023-03-01T11:33:21;11.90;55.00
913;DHT22;443;51.448;7.028;2023-03-01T11:35:57;11.90;56.90
913;DHT22;443;51.448;7.028;2023-03-01T11:38:28;11.80;56.40
913;DHT22;443;51.448;7.028;2023-03-01T11:40:59;12.00;57.80
913;DHT22;443;51.448;7.028;2023-03-01T11:43:35;12.00;56.80
913;DHT22;443;51.448;7.028;2023-03-01T11:46:33;12.10;56.30
913;DHT22;443;51.448;7.028;2023-03-01T11:49:15;12.00;56.00
913;DHT22;443;51.448;7.028;2023-03-01T11:51:53;11.80;54.90
913;DHT22;443;51.448;7.028;2023-03-01T11:54:34;11.90;56.10
913;DHT22;443;51.448;7.028;2023-03-01T11:57:13;11.90;54.70
913;DHT22;443;51.448;7.028;2023-03-01T12:00:02;11.80;54.80
913;DHT22;443;51.448;7.028;2023-03-01T12:08:46;12.10;59.00
913;DHT22;443;51.448;7.028;2023-03-01T12:11:23;12.20;57.80
913;DHT22;443;51.448;7.028;2023-03-01T12:14:10;12.10;55.70
913;DHT22;443;51.448;7.028;2023-03-01T12:17:00;12.20;57.10
913;DHT22;443;51.448;7.028;2023-03-01T12:19:40;12.30;58.70
913;DHT22;443;51.448;7.028;2023-03-01T12:22:22;12.40;57.00
913;DHT22;443;51.448;7.028;2023-03-01T12:28:13;12.50;57.10
913;DHT22;443;51.448;7.028;2023-03-01T12:30:51;12.60;59.50
913;DHT22;443;51.448;7.028;2023-03-01T12:33:26;12.60;56.00
913;DHT22;443;51.448;7.028;2023-03-01T12:36:15;12.70;57.10
913;DHT22;443;51.448;7.028;2023-03-01T12:38:49;12.50;54.10
913;DHT22;443;51.448;7.028;2023-03-01T12:41:40;12.30;54.60
913;DHT22;443;51.448;7.028;2023-03-01T12:44:24;12.30;55.10
913;DHT22;443;51.448;7.028;2023-03-01T12:47:06;12.20;54.10
913;DHT22;443;51.448;7.028;2023-03-01T12:49:37;12.20;55.50
913;DHT22;443;51.448;7.028;2023-03-01T12:52:11;12.20;56.10
913;DHT22;443;51.448;7.028;2023-03-01T12:54:41;12.50;59.20
913;DHT22;443;51.448;7.028;2023-03-01T12:57:14;12.60;57.10
913;DHT22;443;51.448;7.028;2023-03-01T13:00:00;12.50;55.20
913;DHT22;443;51.448;7.028;2023-03-01T13:02:35;12.60;58.10
913;DHT22;443;51.448;7.028;2023-03-01T13:05:19;12.60;58.70
913;DHT22;443;51.448;7.028;2023-03-01T13:07:54;12.70;57.70
913;DHT22;443;51.448;7.028;2023-03-01T13:10:28;12.80;57.30
913;DHT22;443;51.448;7.028;2023-03-01T13:13:13;12.70;56.70
913;DHT22;443;51.448;7.028;2023-03-01T13:15:40;12.80;57.80
913;DHT22;443;51.448;7.028;2023-03-01T13:18:28;12.70;56.00
913;DHT22;443;51.448;7.028;2023-03-01T13:20:56;12.80;58.70
913;DHT22;443;51.448;7.028;2023-03-01T13:23:29;12.90;58.60
913;DHT22;443;51.448;7.028;2023-03-01T13:26:11;13.00;57.40
913;DHT22;443;51.448;7.028;2023-03-01T13:34:52;13.10;57.90
913;DHT22;443;51.448;7.028;2023-03-01T13:37:36;13.10;56.20
913;DHT22;443;51.448;7.028;2023-03-01T13:42:48;13.00;55.10
913;DHT22;443;51.448;7.028;2023-03-01T13:45:20;13.00;56.50
913;DHT22;443;51.448;7.028;2023-03-01T13:47:52;13.00;56.00
913;DHT22;443;51.448;7.028;2023-03-01T13:50:21;13.00;52.60
913;DHT22;443;51.448;7.028;2023-03-01T13:52:53;13.00;55.50
913;DHT22;443;51.448;7.028;2023-03-01T13:55:26;13.10;56.20
913;DHT22;443;51.448;7.028;2023-03-01T13:57:56;13.20;57.40
913;DHT22;443;51.448;7.028;2023-03-01T14:00:31;13.20;56.30
913;DHT22;443;51.448;7.028;2023-03-01T14:03:01;13.30;56.00
913;DHT22;443;51.448;7.028;2023-03-01T14:05:27;13.30;55.70
913;DHT22;443;51.448;7.028;2023-03-01T14:07:55;13.40;56.90
913;DHT22;443;51.448;7.028;2023-03-01T14:10:24;13.40;54.20
913;DHT22;443;51.448;7.028;2023-03-01T14:12:55;13.50;55.90
913;DHT22;443;51.448;7.028;2023-03-01T14:15:31;13.60;56.80
913;DHT22;443;51.448;7.028;2023-03-01T14:18:02;13.60;52.60
913;DHT22;443;51.448;7.028;2023-03-01T14:20:32;13.70;53.80
913;DHT22;443;51.448;7.028;2023-03-01T14:23:02;13.70;54.40
913;DHT22;443;51.448;7.028;2023-03-01T14:25:35;13.80;56.20
913;DHT22;443;51.448;7.028;2023-03-01T14:28:11;13.90;52.90
913;DHT22;443;51.448;7.028;2023-03-01T14:30:44;14.00;52.90
913;DHT22;443;51.448;7.028;2023-03-01T14:33:33;14.10;53.00
913;DHT22;443;51.448;7.028;2023-03-01T14:36:03;14.20;52.40
913;DHT22;443;51.448;7.028;2023-03-01T14:38:33;14.20;54.90
913;DHT22;443;51.448;7.028;2023-03-01T14:41:03;14.20;54.90
913;DHT22;443;51.448;7.028;2023-03-01T14:43:31;14.20;53.90
913;DHT22;443;51.448;7.028;2023-03-01T14:46:00;14.30;54.70
913;DHT22;443;51.448;7.028;2023-03-01T14:48:28;14.20;56.20
913;DHT22;443;51.448;7.028;2023-03-01T14:50:56;14.30;55.50
913;DHT22;443;51.448;7.028;2023-03-01T14:53:28;14.40;52.80
913;DHT22;443;51.448;7.028;2023-03-01T14:55:59;14.50;53.70
913;DHT22;443;51.448;7.028;2023-03-01T14:58:27;14.70;52.40
913;DHT22;443;51.448;7.028;2023-03-01T15:00:56;14.60;52.00
913;DHT22;443;51.448;7.028;2023-03-01T15:03:27;14.60;54.60
913;DHT22;443;51.448;7.028;2023-03-01T15:05:57;14.60;54.80
913;DHT22;443;51.448;7.028;2023-03-01T15:08:25;14.60;54.50
913;DHT22;443;51.448;7.028;2023-03-01T15:11:01;14.60;55.40
913;DHT22;443;51.448;7.028;2023-03-01T15:13:30;14.60;55.30
913;DHT22;443;51.448;7.028;2023-03-01T15:16:06;14.60;55.10
913;DHT22;443;51.448;7.028;2023-03-01T15:18:36;14.60;55.80
913;DHT22;443;51.448;7.028;2023-03-01T15:21:09;14.60;55.10
913;DHT22;443;51.448;7.028;2023-03-01T15:23:37;14.60;55.30
913;DHT22;443;51.448;7.028;2023-03-01T15:26:05;14.60;55.90
913;DHT22;443;51.448;7.028;2023-03-01T15:28:35;14.50;55.90
913;DHT22;443;51.448;7.028;2023-03-01T15:31:05;14.50;55.20
913;DHT22;443;51.448;7.028;2023-03-01T15:33:37;14.60;55.80
913;DHT22;443;51.448;7.028;2023-03-01T15:36:35;14.70;55.30
913;DHT22;443;51.448;7.028;2023-03-01T15:39:32;14.80;55.50
913;DHT22;443;51.448;7.028;2023-03-01T15:42:03;14.80;55.30
913;DHT22;443;51.448;7.028;2023-03-01T15:44:32;14.90;55.20
913;DHT22;443;51.448;7.028;2023-03-01T15:47:00;14.90;55.10
913;DHT22;443;51.448;7.028;2023-03-01T15:49:35;15.00;55.00
913;DHT22;443;51.448;7.028;2023-03-01T15:52:04;15.10;54.70
913;DHT22;443;51.448;7.028;2023-03-01T15:54:32;15.10;54.80
913;DHT22;443;51.448;7.028;2023-03-01T15:56:59;15.20;54.30
913;DHT22;443;51.448;7.028;2023-03-01T15:59:26;15.20;54.40
913;DHT22;443;51.448;7.028;2023-03-01T16:01:53;15.30;53.80
913;DHT22;443;51.448;7.028;2023-03-01T16:04:20;15.30;54.70
913;DHT22;443;51.448;7.028;2023-03-01T16:06:50;15.30;54.10
913;DHT22;443;51.448;7.028;2023-03-01T16:09:21;15.30;54.20
913;DHT22;443;51.448;7.028;2023-03-01T16:11:48;15.40;54.30
913;DHT22;443;51.448;7.028;2023-03-01T16:14:15;15.40;54.00
913;DHT22;443;51.448;7.028;2023-03-01T16:16:43;15.40;53.90
913;DHT22;443;51.448;7.028;2023-03-01T16:19:10;15.40;53.60
913;DHT22;443;51.448;7.028;2023-03-01T16:21:37;15.40;53.80
913;DHT22;443;51.448;7.028;2023-03-01T16:24:06;15.40;54.10
913;DHT22;443;51.448;7.028;2023-03-01T16:26:32;15.30;54.30
913;DHT22;443;51.448;7.028;2023-03-01T16:28:59;15.10;54.00
913;DHT22;443;51.448;7.028;2023-03-01T16:31:26;15.00;54.70
913;DHT22;443;51.448;7.028;2023-03-01T16:33:54;14.80;53.60
913;DHT22;443;51.448;7.028;2023-03-01T16:36:22;14.80;53.30
913;DHT22;443;51.448;7.028;2023-03-01T16:38:50;14.70;52.50
913;DHT22;443;51.448;7.028;2023-03-01T16:41:20;14.70;51.40
913;DHT22;443;51.448;7.028;2023-03-01T16:43:47;14.70;49.20
913;DHT22;443;51.448;7.028;2023-03-01T16:46:16;14.60;50.00
913;DHT22;443;51.448;7.028;2023-03-01T16:48:43;14.50;49.20
913;DHT22;443;51.448;7.028;2023-03-01T16:51:10;14.40;51.80
913;DHT22;443;51.448;7.028;2023-03-01T16:53:37;14.30;48.50
913;DHT22;443;51.448;7.028;2023-03-01T16:56:05;14.20;47.90
913;DHT22;443;51.448;7.028;2023-03-01T16:58:35;14.10;48.90
913;DHT22;443;51.448;7.028;2023-03-01T17:01:06;14.10;49.80
913;DHT22;443;51.448;7.028;2023-03-01T17:03:34;14.00;49.50
913;DHT22;443;51.448;7.028;2023-03-01T17:06:02;13.90;48.20
913;DHT22;443;51.448;7.028;2023-03-01T17:08:29;13.80;48.10
913;DHT22;443;51.448;7.028;2023-03-01T17:11:02;13.70;49.90
913;DHT22;443;51.448;7.028;2023-03-01T17:13:29;13.60;49.10
913;DHT22;443;51.448;7.028;2023-03-01T17:15:57;13.60;50.20
913;DHT22;443;51.448;7.028;2023-03-01T17:18:24;13.50;49.90
913;DHT22;443;51.448;7.028;2023-03-01T17:20:50;13.50;51.80
913;DHT22;443;51.448;7.028;2023-03-01T17:23:17;13.40;48.50